createdAt,value
2023-05-13T00:09:18.772Z,7.83
2023-05-13T00:19:26.660Z,7.86
2023-05-13T00:29:28.597Z,7.88
2023-05-13T00:39:30.489Z,7.75
2023-05-13T00:49:35.509Z,7.63
2023-05-13T00:59:40.348Z,7.39
2023-05-13T01:10:09.374Z,7.47
2023-05-13T01:20:12.280Z,7.46
2023-05-13T01:30:15.485Z,7.55
2023-05-13T01:40:31.909Z,7.72
2023-05-13T01:50:34.459Z,7.52
2023-05-13T02:00:38.410Z,7.34
2023-05-13T02:10:56.931Z,7.22
2023-05-13T02:20:58.832Z,7.12
2023-05-13T02:31:01.749Z,7.29
2023-05-13T02:41:03.676Z,7.41
2023-05-13T02:51:09.817Z,7.93
2023-05-13T03:01:19.748Z,7.77
2023-05-13T03:11:21.919Z,7.95
2023-05-13T03:21:23.902Z,8.10
2023-05-13T03:31:26.175Z,8.21
2023-05-13T03:41:29.390Z,8.94
2023-05-13T03:51:33.220Z,9.38
2023-05-13T04:01:36.670Z,10.30
2023-05-13T04:11:38.613Z,11.30
2023-05-13T04:21:40.574Z,11.46
2023-05-13T04:31:43.782Z,11.96
2023-05-13T04:41:49.801Z,11.33
2023-05-13T04:51:51.688Z,11.42
2023-05-13T05:01:55.139Z,11.48
2023-05-13T05:11:56.989Z,11.69
2023-05-13T05:21:58.861Z,12.64
2023-05-13T05:32:01.012Z,14.12
2023-05-13T05:42:03.233Z,13.64
2023-05-13T05:52:05.588Z,13.18
2023-05-13T06:02:08.544Z,13.51
2023-05-13T06:12:10.551Z,15.54
2023-05-13T06:22:12.495Z,15.90
2023-05-13T06:32:15.012Z,17.42
2023-05-13T06:42:21.500Z,18.32
2023-05-13T06:52:26.350Z,19.89
2023-05-13T07:02:28.223Z,20.40
2023-05-13T07:12:37.281Z,20.41
2023-05-13T07:23:07.153Z,21.57
2023-05-13T07:33:11.466Z,21.15
2023-05-13T07:43:14.471Z,21.23
2023-05-13T07:53:24.107Z,21.24
2023-05-13T08:03:26.191Z,21.42
2023-05-13T08:13:28.279Z,21.40
2023-05-13T08:23:40.840Z,21.70
2023-05-13T08:33:48.737Z,22.17
2023-05-13T08:43:54.470Z,22.16
2023-05-13T08:53:56.724Z,21.78
2023-05-13T09:04:02.167Z,22.43
2023-05-13T09:14:05.848Z,22.08
2023-05-13T09:24:13.737Z,22.09
2023-05-13T09:34:25.459Z,22.00
2023-05-13T09:44:27.555Z,22.26
2023-05-13T09:54:35.397Z,22.31
2023-05-13T10:04:37.922Z,21.08
2023-05-13T10:14:48.247Z,21.25
2023-05-13T10:24:50.397Z,22.05
2023-05-13T10:35:08.946Z,21.71
2023-05-13T10:45:11.599Z,21.99
2023-05-13T10:55:20.636Z,21.70
2023-05-13T11:05:22.879Z,22.17
2023-05-13T11:15:43.281Z,22.46
2023-05-13T11:25:46.391Z,21.52
2023-05-13T11:35:56.868Z,20.99
2023-05-13T11:45:59.883Z,20.61
2023-05-13T11:56:13.030Z,21.11
2023-05-13T12:06:16.105Z,21.48
2023-05-13T12:16:18.301Z,21.99
2023-05-13T12:26:21.941Z,21.44
2023-05-13T12:36:36.150Z,21.39
2023-05-13T12:46:38.351Z,21.54
2023-05-13T12:56:40.724Z,21.82
2023-05-13T13:06:43.012Z,21.90
2023-05-13T13:16:44.967Z,21.95
2023-05-13T13:26:50.130Z,21.91
2023-05-13T13:36:53.123Z,21.77
2023-05-13T13:46:55.264Z,22.11
2023-05-13T13:56:57.171Z,21.99
2023-05-13T14:07:00.412Z,22.20
2023-05-13T14:17:02.450Z,21.87
2023-05-13T14:27:04.604Z,21.91
2023-05-13T14:37:06.567Z,22.09
2023-05-13T14:47:09.081Z,21.76
2023-05-13T14:57:12.188Z,21.10
2023-05-13T15:07:14.219Z,21.15
2023-05-13T15:17:19.533Z,21.07
2023-05-13T15:27:26.057Z,20.95
2023-05-13T15:37:28.991Z,21.08
2023-05-13T15:47:31.265Z,21.43
2023-05-13T15:57:45.125Z,21.48
2023-05-13T16:07:47.234Z,20.74
2023-05-13T16:17:49.407Z,20.12
2023-05-13T16:27:51.489Z,19.55
2023-05-13T16:37:55.921Z,19.28
2023-05-13T16:47:58.103Z,19.35
2023-05-13T16:58:01.727Z,19.46
2023-05-13T17:08:06.943Z,19.57
2023-05-13T17:18:09.961Z,19.50
2023-05-13T17:28:11.944Z,19.69
2023-05-13T17:38:15.884Z,19.10
2023-05-13T17:48:17.928Z,18.35
2023-05-13T17:58:20.010Z,18.20
2023-05-13T18:08:24.156Z,17.11
2023-05-13T18:18:28.276Z,15.97
2023-05-13T18:28:32.392Z,15.49
2023-05-13T18:38:34.509Z,15.22
2023-05-13T18:48:38.657Z,14.72
2023-05-13T18:58:41.007Z,14.08
2023-05-13T19:08:44.183Z,13.77
2023-05-13T19:18:48.054Z,13.26
2023-05-13T19:28:50.365Z,12.89
2023-05-13T19:38:53.380Z,12.81
2023-05-13T19:48:55.499Z,12.74
2023-05-13T19:58:57.529Z,12.86
2023-05-13T20:09:01.027Z,12.67
2023-05-13T20:19:08.914Z,11.95
2023-05-13T20:29:15.048Z,11.82
2023-05-13T20:39:17.640Z,11.48
2023-05-13T20:49:31.386Z,11.36
2023-05-13T20:59:33.403Z,10.96
2023-05-13T21:09:35.394Z,10.90
2023-05-13T21:19:37.538Z,10.70
2023-05-13T21:29:39.677Z,10.47
2023-05-13T21:39:42.964Z,10.00
2023-05-13T21:49:44.989Z,10.10
2023-05-13T22:07:11.430Z,9.49
2023-05-13T22:17:34.179Z,9.66
2023-05-13T22:27:36.258Z,9.27
2023-05-13T22:37:39.281Z,9.52
2023-05-13T22:47:41.291Z,9.02
2023-05-13T22:57:43.208Z,8.80
2023-05-13T23:07:46.183Z,8.74
2023-05-13T23:17:48.197Z,8.79
2023-05-13T23:27:58.163Z,8.77
2023-05-13T23:38:00.838Z,8.65
2023-05-13T23:48:03.774Z,8.47
2023-05-13T23:58:05.772Z,8.32
